Terminal Aerodrome Forecast
Issued by NWS

Home | Current Version | Previous Version | Text Only | Print | Product List | Glossary On
Versions: 1 2 3 4 5 6 7 8 9 10 11 12
613
FTUS45 KRIW 232326
TAFLND
TAF
KLND 232326Z 2400/2424 VRB04KT P6SM SCT110
     FM240200 24005KT P6SM SKC
     FM242100 29008KT P6SM SCT120 BKN150=

USA.gov is the U.S. government's official web portal to all federal, state and local government web resources and services.